Terminal Aerodrome Forecast
Issued by NWS

Home | Current Version | Previous Version | Graphics & Text | Print | Product List | Glossary On
Versions: 1 2 3 4 5 6 7 8 9 10 11 12 13 14 15 16 17 18 19 20 21 22 23 24 25 26 27 28 29 30
000
FTUS43 KGRB 252326
TAFATW
TAF
KATW 252326Z 2600/2624 22013G20KT P6SM -TSRA BKN040CB
      TEMPO 2600/2602 4SM -TSRA BKN025CB
     FM260200 22006KT P6SM -TSRA BKN040CB
     FM260600 23004KT P6SM SCT080
      TEMPO 2609/2612 4SM BR
     FM261400 25006KT P6SM SCT040=

USA.gov is the U.S. government's official web portal to all federal, state and local government web resources and services.